Portada
METAR-TAF:

METAR-TAF

Aeroports :

Abakan, Rússia

latitud: 53-45N, longitud: 091-24E, altitud: 245 m

Observació

L'informe es va fer fa 43 minuts, a les 22:30 UTC
Vent 6 kt del Sud
Temperatura 21°C
Humitat 73%
Pressió 1001 hPa
Visibilitat 10 km o més
Escasses núvols a una alçada de 4900 ft, Cumulonimbus.

METAR: UNAA 262230Z 19003MPS 9999 FEW049CB 21/16 Q1001 R20/190060 NOSIG RMK QFE728

Hora: 06:13 (23:13 UTC)

Pronòstic

L'informe es va fer fa 3 hores i 23 minuts, a les 19:50 UTC
Pronòstic vàlid del 26 a les 21 UTC al 27 a les 21 UTC
Vent 6 kt del Sud/Sud-Oest amb ràfegues de 16 kt
Visibilitat 10 km o més
Núvols disperses a una alçada de 2000 ft, Cumulonimbus.
Temporalment
l' 26 a les 21 UTC al 27 a les 21 UTC
Vent 16 kt del Oest amb ràfegues de 35 kt
tempesta, pluja

TAF: UNAA 261950Z 2621/2721 21003G08MPS 9999 SCT020CB TEMPO 2621/2721 27008G18MPS -TSRA

Observacions i pronòstics meteorològics de més de 4000 aeroports (METAR i TAF).

Les estacions disponibles són els punts grocs i vermells al mapa.

Posi el ratolí al punt desitjat per veure el nom de l'estació.

Feu clic per veure les observacions i els pronòstics meteorològics.

Per canviar el mapa: feu clic els botons verds amb una creu de color negre per apropar; al botó verd amb un guió per allunyar la imatge; o en les fletxes verdes per a mapes adjacents.


METAR-TAF: